sensor_id;sensor_type;location;lat;lon;timestamp;pressure;altitude;pressure_sealevel;temperature;humidity
73003;BME280;61184;54.356;-8.550;2022-09-04T00:01:10;100195.33;;;24.47;32.93
73003;BME280;61184;54.356;-8.550;2022-09-04T00:03:34;100199.39;;;24.12;32.79
73003;BME280;61184;54.356;-8.550;2022-09-04T00:05:56;100208.70;;;23.89;33.07
73003;BME280;61184;54.356;-8.550;2022-09-04T00:08:31;100201.46;;;24.23;33.24
73003;BME280;61184;54.356;-8.550;2022-09-04T00:10:48;100200.01;;;24.05;33.18
73003;BME280;61184;54.356;-8.550;2022-09-04T00:13:14;100193.83;;;24.43;32.89
73003;BME280;61184;54.356;-8.550;2022-09-04T00:15:40;100184.80;;;23.83;33.37
73003;BME280;61184;54.356;-8.550;2022-09-04T00:18:04;100185.76;;;23.99;33.21
73003;BME280;61184;54.356;-8.550;2022-09-04T00:20:33;100182.84;;;24.34;33.05
73003;BME280;61184;54.356;-8.550;2022-09-04T00:22:56;100178.94;;;23.89;33.29
73003;BME280;61184;54.356;-8.550;2022-09-04T00:25:23;100174.04;;;24.08;33.29
73003;BME280;61184;54.356;-8.550;2022-09-04T00:27:44;100172.39;;;24.14;33.22
73003;BME280;61184;54.356;-8.550;2022-09-04T00:30:10;100195.97;;;23.80;33.37
73003;BME280;61184;54.356;-8.550;2022-09-04T00:32:39;100205.34;;;24.06;33.34
73003;BME280;61184;54.356;-8.550;2022-09-04T00:35:05;100213.31;;;24.25;33.09
73003;BME280;61184;54.356;-8.550;2022-09-04T00:37:27;100220.81;;;24.09;32.95
73003;BME280;61184;54.356;-8.550;2022-09-04T00:39:54;100226.38;;;23.74;33.42
73003;BME280;61184;54.356;-8.550;2022-09-04T00:42:23;100211.56;;;24.03;33.30
73003;BME280;61184;54.356;-8.550;2022-09-04T00:44:48;100200.83;;;24.11;33.18
73003;BME280;61184;54.356;-8.550;2022-09-04T00:49:44;100205.14;;;24.04;33.26
73003;BME280;61184;54.356;-8.550;2022-09-04T00:52:01;100198.23;;;23.87;33.15
73003;BME280;61184;54.356;-8.550;2022-09-04T00:54:40;100204.00;;;23.84;33.47
73003;BME280;61184;54.356;-8.550;2022-09-04T00:59:19;100194.66;;;23.83;33.16
73003;BME280;61184;54.356;-8.550;2022-09-04T01:01:37;100193.86;;;23.97;33.28
73003;BME280;61184;54.356;-8.550;2022-09-04T01:04:21;100190.81;;;24.00;33.21
73003;BME280;61184;54.356;-8.550;2022-09-04T01:06:34;100192.80;;;24.09;33.03
73003;BME280;61184;54.356;-8.550;2022-09-04T01:09:10;100184.97;;;23.93;33.06
73003;BME280;61184;54.356;-8.550;2022-09-04T01:11:26;100181.47;;;23.96;33.21
73003;BME280;61184;54.356;-8.550;2022-09-04T01:13:51;100188.37;;;23.75;33.18
73003;BME280;61184;54.356;-8.550;2022-09-04T01:16:13;100189.05;;;23.75;33.44
73003;BME280;61184;54.356;-8.550;2022-09-04T01:18:42;100173.64;;;23.95;33.16
73003;BME280;61184;54.356;-8.550;2022-09-04T01:21:15;100177.45;;;24.07;33.06
73003;BME280;61184;54.356;-8.550;2022-09-04T01:23:47;100180.23;;;23.90;33.16
73003;BME280;61184;54.356;-8.550;2022-09-04T01:25:59;100178.03;;;23.70;33.13
73003;BME280;61184;54.356;-8.550;2022-09-04T01:28:25;100175.88;;;23.77;33.03
73003;BME280;61184;54.356;-8.550;2022-09-04T01:30:48;100181.49;;;23.89;33.16
73003;BME280;61184;54.356;-8.550;2022-09-04T01:33:14;100184.51;;;24.03;32.99
73003;BME280;61184;54.356;-8.550;2022-09-04T01:35:40;100182.92;;;23.71;33.07
73003;BME280;61184;54.356;-8.550;2022-09-04T01:38:08;100178.68;;;23.87;33.21
73003;BME280;61184;54.356;-8.550;2022-09-04T01:40:32;100171.07;;;23.89;33.13
73003;BME280;61184;54.356;-8.550;2022-09-04T01:42:55;100161.72;;;23.89;33.13
73003;BME280;61184;54.356;-8.550;2022-09-04T01:45:19;100152.91;;;23.88;33.11
73003;BME280;61184;54.356;-8.550;2022-09-04T01:47:44;100149.22;;;24.10;32.82
73003;BME280;61184;54.356;-8.550;2022-09-04T01:50:09;100136.95;;;23.87;33.14
73003;BME280;61184;54.356;-8.550;2022-09-04T01:52:37;100122.20;;;24.00;32.97
73003;BME280;61184;54.356;-8.550;2022-09-04T01:55:01;100109.31;;;23.63;33.18
73003;BME280;61184;54.356;-8.550;2022-09-04T01:57:33;100099.56;;;23.54;33.19
73003;BME280;61184;54.356;-8.550;2022-09-04T01:59:59;100091.33;;;23.78;33.20
73003;BME280;61184;54.356;-8.550;2022-09-04T02:02:18;100096.49;;;24.02;32.89
73003;BME280;61184;54.356;-8.550;2022-09-04T02:04:45;100117.81;;;23.75;33.31
73003;BME280;61184;54.356;-8.550;2022-09-04T02:07:12;100125.62;;;23.83;33.18
73003;BME280;61184;54.356;-8.550;2022-09-04T02:09:35;100136.03;;;24.47;32.31
73003;BME280;61184;54.356;-8.550;2022-09-04T02:12:05;100146.46;;;23.83;33.11
73003;BME280;61184;54.356;-8.550;2022-09-04T02:14:30;100156.46;;;23.71;32.95
73003;BME280;61184;54.356;-8.550;2022-09-04T02:16:54;100154.13;;;23.89;32.67
73003;BME280;61184;54.356;-8.550;2022-09-04T02:19:19;100150.00;;;23.98;32.86
73003;BME280;61184;54.356;-8.550;2022-09-04T02:21:40;100150.66;;;23.75;33.19
73003;BME280;61184;54.356;-8.550;2022-09-04T02:24:09;100142.68;;;23.98;32.88
73003;BME280;61184;54.356;-8.550;2022-09-04T02:26:32;100135.30;;;23.70;33.25
73003;BME280;61184;54.356;-8.550;2022-09-04T02:28:58;100131.42;;;23.51;33.43
73003;BME280;61184;54.356;-8.550;2022-09-04T02:31:27;100134.23;;;23.78;33.14
73003;BME280;61184;54.356;-8.550;2022-09-04T02:33:49;100138.63;;;24.06;32.75
73003;BME280;61184;54.356;-8.550;2022-09-04T02:36:12;100132.27;;;23.46;33.57
73003;BME280;61184;54.356;-8.550;2022-09-04T02:38:41;100120.36;;;24.04;32.81
73003;BME280;61184;54.356;-8.550;2022-09-04T02:41:06;100117.82;;;24.93;31.56
73003;BME280;61184;54.356;-8.550;2022-09-04T02:43:34;100112.43;;;24.62;31.62
73003;BME280;61184;54.356;-8.550;2022-09-04T02:45:58;100102.31;;;24.34;32.29
73003;BME280;61184;54.356;-8.550;2022-09-04T02:48:21;100097.25;;;24.04;32.82
73003;BME280;61184;54.356;-8.550;2022-09-04T02:50:55;100093.95;;;24.24;32.43
73003;BME280;61184;54.356;-8.550;2022-09-04T02:53:12;100094.43;;;24.20;32.55
73003;BME280;61184;54.356;-8.550;2022-09-04T02:55:44;100091.02;;;24.05;32.37
73003;BME280;61184;54.356;-8.550;2022-09-04T02:58:06;100084.98;;;24.61;31.91
73003;BME280;61184;54.356;-8.550;2022-09-04T03:00:31;100081.75;;;24.32;31.90
73003;BME280;61184;54.356;-8.550;2022-09-04T03:02:54;100078.26;;;24.55;31.97
73003;BME280;61184;54.356;-8.550;2022-09-04T03:05:18;100078.10;;;24.58;31.92
73003;BME280;61184;54.356;-8.550;2022-09-04T03:07:43;100077.14;;;24.16;32.42
73003;BME280;61184;54.356;-8.550;2022-09-04T03:10:10;100075.07;;;24.58;31.87
73003;BME280;61184;54.356;-8.550;2022-09-04T03:12:36;100075.37;;;24.44;32.04
73003;BME280;61184;54.356;-8.550;2022-09-04T03:15:03;100083.26;;;24.58;31.87
73003;BME280;61184;54.356;-8.550;2022-09-04T03:17:24;100086.52;;;24.61;31.86
73003;BME280;61184;54.356;-8.550;2022-09-04T03:19:50;100091.76;;;24.35;32.16
73003;BME280;61184;54.356;-8.550;2022-09-04T03:22:16;100089.69;;;24.60;31.87
73003;BME280;61184;54.356;-8.550;2022-09-04T03:27:05;100078.48;;;24.02;32.60
73003;BME280;61184;54.356;-8.550;2022-09-04T03:29:34;100070.93;;;24.50;31.93
73003;BME280;61184;54.356;-8.550;2022-09-04T03:32:03;100064.06;;;24.33;32.11
73003;BME280;61184;54.356;-8.550;2022-09-04T03:34:25;100064.96;;;24.21;31.99
73003;BME280;61184;54.356;-8.550;2022-09-04T03:36:52;100071.30;;;24.41;32.04
73003;BME280;61184;54.356;-8.550;2022-09-04T03:39:15;100064.42;;;24.40;31.97
73003;BME280;61184;54.356;-8.550;2022-09-04T03:41:38;100058.69;;;24.51;31.84
73003;BME280;61184;54.356;-8.550;2022-09-04T03:44:11;100047.12;;;24.52;31.87
73003;BME280;61184;54.356;-8.550;2022-09-04T03:46:35;100041.48;;;24.29;32.14
73003;BME280;61184;54.356;-8.550;2022-09-04T03:49:03;100034.98;;;24.49;32.15
73003;BME280;61184;54.356;-8.550;2022-09-04T03:51:18;100031.73;;;24.28;32.11
73003;BME280;61184;54.356;-8.550;2022-09-04T03:53:44;100028.17;;;24.56;31.78
73003;BME280;61184;54.356;-8.550;2022-09-04T03:56:23;100022.53;;;24.47;31.81
73003;BME280;61184;54.356;-8.550;2022-09-04T03:58:38;100016.81;;;24.37;31.92
73003;BME280;61184;54.356;-8.550;2022-09-04T04:01:05;100017.00;;;24.22;31.84
73003;BME280;61184;54.356;-8.550;2022-09-04T04:03:37;100009.71;;;24.51;31.75
73003;BME280;61184;54.356;-8.550;2022-09-04T04:05:55;99994.42;;;24.48;31.74
73003;BME280;61184;54.356;-8.550;2022-09-04T04:10:48;99979.46;;;24.53;31.66
73003;BME280;61184;54.356;-8.550;2022-09-04T04:13:15;99978.23;;;25.01;31.72
73003;BME280;61184;54.356;-8.550;2022-09-04T04:18:10;99961.02;;;24.37;31.90
73003;BME280;61184;54.356;-8.550;2022-09-04T04:20:28;99951.55;;;24.58;31.55
73003;BME280;61184;54.356;-8.550;2022-09-04T04:22:58;99951.07;;;24.36;31.88
73003;BME280;61184;54.356;-8.550;2022-09-04T04:25:24;99944.90;;;24.52;31.67
73003;BME280;61184;54.356;-8.550;2022-09-04T04:27:51;99936.78;;;24.32;31.92
73003;BME280;61184;54.356;-8.550;2022-09-04T04:30:06;99928.70;;;23.74;32.73
73003;BME280;61184;54.356;-8.550;2022-09-04T04:32:38;99925.34;;;24.25;32.08
73003;BME280;61184;54.356;-8.550;2022-09-04T04:35:03;99918.22;;;24.55;31.63
73003;BME280;61184;54.356;-8.550;2022-09-04T04:37:26;99918.42;;;24.55;31.57
73003;BME280;61184;54.356;-8.550;2022-09-04T04:39:49;99913.60;;;24.62;31.50
73003;BME280;61184;54.356;-8.550;2022-09-04T04:42:18;99909.25;;;24.60;31.53
73003;BME280;61184;54.356;-8.550;2022-09-04T04:44:49;99903.18;;;24.45;31.70
73003;BME280;61184;54.356;-8.550;2022-09-04T04:47:06;99897.80;;;24.23;31.96
73003;BME280;61184;54.356;-8.550;2022-09-04T04:49:43;99886.69;;;24.26;31.97
73003;BME280;61184;54.356;-8.550;2022-09-04T04:52:10;99882.70;;;24.01;32.23
73003;BME280;61184;54.356;-8.550;2022-09-04T04:54:28;99880.57;;;24.19;32.00
73003;BME280;61184;54.356;-8.550;2022-09-04T04:56:49;99879.89;;;24.09;32.15
73003;BME280;61184;54.356;-8.550;2022-09-04T04:59:15;99880.36;;;23.52;32.88
73003;BME280;61184;54.356;-8.550;2022-09-04T05:01:40;99878.63;;;24.27;31.88
73003;BME280;61184;54.356;-8.550;2022-09-04T05:04:06;99885.17;;;23.92;32.33
73003;BME280;61184;54.356;-8.550;2022-09-04T05:06:32;99896.01;;;24.24;31.99
73003;BME280;61184;54.356;-8.550;2022-09-04T05:08:54;99908.76;;;24.38;31.79
73003;BME280;61184;54.356;-8.550;2022-09-04T05:11:22;99922.26;;;23.91;32.40
73003;BME280;61184;54.356;-8.550;2022-09-04T05:13:46;99935.05;;;24.51;31.57
73003;BME280;61184;54.356;-8.550;2022-09-04T05:16:11;99947.72;;;24.32;31.80
73003;BME280;61184;54.356;-8.550;2022-09-04T05:18:34;99951.75;;;24.38;31.68
73003;BME280;61184;54.356;-8.550;2022-09-04T05:21:03;99955.22;;;24.04;32.11
73003;BME280;61184;54.356;-8.550;2022-09-04T05:23:30;99950.22;;;24.32;31.81
73003;BME280;61184;54.356;-8.550;2022-09-04T05:25:52;99940.10;;;24.33;31.75
73003;BME280;61184;54.356;-8.550;2022-09-04T05:28:22;99936.73;;;24.24;31.87
73003;BME280;61184;54.356;-8.550;2022-09-04T05:30:46;99941.73;;;24.44;31.95
73003;BME280;61184;54.356;-8.550;2022-09-04T05:33:10;99934.74;;;23.73;32.52
73003;BME280;61184;54.356;-8.550;2022-09-04T05:35:36;99927.53;;;24.05;32.17
73003;BME280;61184;54.356;-8.550;2022-09-04T05:38:00;99922.56;;;23.95;32.18
73003;BME280;61184;54.356;-8.550;2022-09-04T05:40:27;99926.66;;;24.08;31.78
73003;BME280;61184;54.356;-8.550;2022-09-04T05:42:56;99931.57;;;24.37;31.74
73003;BME280;61184;54.356;-8.550;2022-09-04T05:45:20;99933.45;;;24.34;31.70
73003;BME280;61184;54.356;-8.550;2022-09-04T05:47:42;99936.25;;;24.23;32.12
73003;BME280;61184;54.356;-8.550;2022-09-04T05:50:20;99939.49;;;24.16;31.87
73003;BME280;61184;54.356;-8.550;2022-09-04T05:52:43;99945.04;;;24.21;31.82
73003;BME280;61184;54.356;-8.550;2022-09-04T05:57:27;99967.85;;;24.35;31.61
73003;BME280;61184;54.356;-8.550;2022-09-04T05:59:56;99969.89;;;24.08;31.93
73003;BME280;61184;54.356;-8.550;2022-09-04T06:02:24;99962.93;;;24.06;32.01
73003;BME280;61184;54.356;-8.550;2022-09-04T06:07:06;99956.89;;;24.38;31.56
73003;BME280;61184;54.356;-8.550;2022-09-04T06:09:33;99963.81;;;24.21;31.78
73003;BME280;61184;54.356;-8.550;2022-09-04T06:12:01;99958.72;;;24.18;31.82
73003;BME280;61184;54.356;-8.550;2022-09-04T06:14:27;99928.62;;;23.85;31.90
73003;BME280;61184;54.356;-8.550;2022-09-04T06:16:54;99919.94;;;24.17;32.18
73003;BME280;61184;54.356;-8.550;2022-09-04T06:19:18;99921.34;;;23.72;32.37
73003;BME280;61184;54.356;-8.550;2022-09-04T06:21:57;99926.30;;;24.05;31.94
73003;BME280;61184;54.356;-8.550;2022-09-04T06:24:08;99929.00;;;24.01;32.07
73003;BME280;61184;54.356;-8.550;2022-09-04T06:26:34;99926.32;;;23.87;32.18
73003;BME280;61184;54.356;-8.550;2022-09-04T06:28:56;99929.80;;;23.83;32.29
73003;BME280;61184;54.356;-8.550;2022-09-04T06:33:49;99955.81;;;23.46;32.74
73003;BME280;61184;54.356;-8.550;2022-09-04T06:36:17;99969.11;;;23.98;32.05
73003;BME280;61184;54.356;-8.550;2022-09-04T06:38:37;99994.02;;;24.27;31.63
73003;BME280;61184;54.356;-8.550;2022-09-04T06:41:05;100004.97;;;23.83;32.21
73003;BME280;61184;54.356;-8.550;2022-09-04T06:43:26;100002.65;;;23.83;32.16
73003;BME280;61184;54.356;-8.550;2022-09-04T06:45:54;100000.13;;;24.22;31.73
73003;BME280;61184;54.356;-8.550;2022-09-04T06:48:20;99991.74;;;23.83;32.19
73003;BME280;61184;54.356;-8.550;2022-09-04T06:50:46;99983.48;;;23.71;32.34
73003;BME280;61184;54.356;-8.550;2022-09-04T06:53:15;99991.23;;;24.45;32.03
73003;BME280;61184;54.356;-8.550;2022-09-04T06:55:31;100007.88;;;23.53;32.52
73003;BME280;61184;54.356;-8.550;2022-09-04T06:58:07;100021.99;;;23.49;33.25
73003;BME280;61184;54.356;-8.550;2022-09-04T07:00:18;100025.19;;;23.82;32.19
73003;BME280;61184;54.356;-8.550;2022-09-04T07:03:02;100032.06;;;23.81;32.22
73003;BME280;61184;54.356;-8.550;2022-09-04T07:05:18;100042.55;;;23.94;32.06
73003;BME280;61184;54.356;-8.550;2022-09-04T07:07:41;100042.16;;;23.48;32.60
73003;BME280;61184;54.356;-8.550;2022-09-04T07:10:06;100050.98;;;23.75;32.30
73003;BME280;61184;54.356;-8.550;2022-09-04T07:12:41;100055.00;;;23.42;32.69
73003;BME280;61184;54.356;-8.550;2022-09-04T07:17:22;100070.98;;;23.99;31.93
73003;BME280;61184;54.356;-8.550;2022-09-04T07:24:43;100052.51;;;23.43;32.78
73003;BME280;61184;54.356;-8.550;2022-09-04T07:27:05;100066.55;;;23.47;32.69
73003;BME280;61184;54.356;-8.550;2022-09-04T07:29:31;100072.07;;;23.50;32.83
73003;BME280;61184;54.356;-8.550;2022-09-04T07:31:54;100081.26;;;23.20;33.24
73003;BME280;61184;54.356;-8.550;2022-09-04T07:34:20;100087.73;;;23.12;32.91
73003;BME280;61184;54.356;-8.550;2022-09-04T07:36:44;100094.74;;;23.69;32.51
73003;BME280;61184;54.356;-8.550;2022-09-04T07:39:12;100103.98;;;23.46;32.97
73003;BME280;61184;54.356;-8.550;2022-09-04T07:41:34;100103.66;;;23.43;32.99
73003;BME280;61184;54.356;-8.550;2022-09-04T07:44:02;100113.05;;;23.82;32.86
73003;BME280;61184;54.356;-8.550;2022-09-04T07:46:27;100121.64;;;23.91;32.67
73003;BME280;61184;54.356;-8.550;2022-09-04T07:48:51;100127.23;;;23.98;33.03
73003;BME280;61184;54.356;-8.550;2022-09-04T07:51:15;100129.41;;;23.50;33.08
73003;BME280;61184;54.356;-8.550;2022-09-04T07:53:50;100129.05;;;23.81;33.01
73003;BME280;61184;54.356;-8.550;2022-09-04T07:56:10;100135.36;;;23.64;32.82
73003;BME280;61184;54.356;-8.550;2022-09-04T07:58:44;100138.33;;;23.46;33.17
73003;BME280;61184;54.356;-8.550;2022-09-04T08:01:04;100146.47;;;23.31;33.27
73003;BME280;61184;54.356;-8.550;2022-09-04T08:03:28;100150.53;;;23.29;33.42
73003;BME280;61184;54.356;-8.550;2022-09-04T08:05:48;100156.19;;;23.43;33.16
73003;BME280;61184;54.356;-8.550;2022-09-04T08:08:24;100161.91;;;23.27;33.29
73003;BME280;61184;54.356;-8.550;2022-09-04T08:10:37;100166.74;;;23.59;32.89
73003;BME280;61184;54.356;-8.550;2022-09-04T08:13:14;100175.75;;;23.97;33.06
73003;BME280;61184;54.356;-8.550;2022-09-04T08:15:33;100184.45;;;24.15;32.86
73003;BME280;61184;54.356;-8.550;2022-09-04T08:18:05;100192.47;;;23.65;32.86
73003;BME280;61184;54.356;-8.550;2022-09-04T08:20:33;100193.79;;;23.62;32.89
73003;BME280;61184;54.356;-8.550;2022-09-04T08:22:48;100201.02;;;23.34;33.29
73003;BME280;61184;54.356;-8.550;2022-09-04T08:25:15;100203.24;;;23.63;32.85
73003;BME280;61184;54.356;-8.550;2022-09-04T08:27:47;100205.33;;;23.72;32.75
73003;BME280;61184;54.356;-8.550;2022-09-04T08:30:04;100210.55;;;23.52;33.05
73003;BME280;61184;54.356;-8.550;2022-09-04T08:32:40;100217.12;;;23.53;32.97
73003;BME280;61184;54.356;-8.550;2022-09-04T08:35:02;100218.03;;;23.55;33.04
73003;BME280;61184;54.356;-8.550;2022-09-04T08:37:23;100218.69;;;23.49;33.16
73003;BME280;61184;54.356;-8.550;2022-09-04T08:39:46;100224.49;;;23.33;33.34
73003;BME280;61184;54.356;-8.550;2022-09-04T08:42:24;100231.51;;;23.60;32.95
73003;BME280;61184;54.356;-8.550;2022-09-04T08:44:59;100239.08;;;23.89;33.22
73003;BME280;61184;54.356;-8.550;2022-09-04T08:47:12;100248.05;;;23.59;33.07
73003;BME280;61184;54.356;-8.550;2022-09-04T08:54:34;100273.71;;;23.75;32.87
73003;BME280;61184;54.356;-8.550;2022-09-04T08:56:42;100272.69;;;23.60;32.99
73003;BME280;61184;54.356;-8.550;2022-09-04T09:04:07;100301.78;;;23.75;33.25
73003;BME280;61184;54.356;-8.550;2022-09-04T09:09:01;100310.68;;;23.49;33.17
73003;BME280;61184;54.356;-8.550;2022-09-04T09:11:25;100315.58;;;23.71;32.72
73003;BME280;61184;54.356;-8.550;2022-09-04T09:13:49;100322.46;;;23.45;33.27
73003;BME280;61184;54.356;-8.550;2022-09-04T09:16:18;100327.85;;;23.52;33.18
73003;BME280;61184;54.356;-8.550;2022-09-04T09:18:35;100335.43;;;23.45;33.32
73003;BME280;61184;54.356;-8.550;2022-09-04T09:21:00;100333.74;;;23.48;33.39
73003;BME280;61184;54.356;-8.550;2022-09-04T09:23:20;100334.99;;;23.38;33.52
73003;BME280;61184;54.356;-8.550;2022-09-04T09:25:50;100337.22;;;23.39;33.41
73003;BME280;61184;54.356;-8.550;2022-09-04T09:30:43;100351.54;;;23.40;33.51
73003;BME280;61184;54.356;-8.550;2022-09-04T09:35:48;100350.36;;;23.38;33.70
73003;BME280;61184;54.356;-8.550;2022-09-04T09:38:16;100352.24;;;23.64;33.22
73003;BME280;61184;54.356;-8.550;2022-09-04T09:40:30;100362.60;;;23.68;33.22
73003;BME280;61184;54.356;-8.550;2022-09-04T09:43:04;100363.85;;;23.61;33.38
73003;BME280;61184;54.356;-8.550;2022-09-04T09:45:13;100373.39;;;23.62;33.40
73003;BME280;61184;54.356;-8.550;2022-09-04T09:52:35;100390.69;;;24.01;32.97
73003;BME280;61184;54.356;-8.550;2022-09-04T09:55:04;100394.22;;;24.17;32.78
73003;BME280;61184;54.356;-8.550;2022-09-04T09:59:52;100403.35;;;24.17;32.91
73003;BME280;61184;54.356;-8.550;2022-09-04T10:02:23;100403.22;;;24.25;32.78
73003;BME280;61184;54.356;-8.550;2022-09-04T10:07:17;100407.98;;;24.58;32.64
73003;BME280;61184;54.356;-8.550;2022-09-04T10:09:35;100405.91;;;24.44;32.90
73003;BME280;61184;54.356;-8.550;2022-09-04T10:14:34;100408.77;;;24.53;33.11
73003;BME280;61184;54.356;-8.550;2022-09-04T10:26:32;100422.96;;;24.65;33.25
73003;BME280;61184;54.356;-8.550;2022-09-04T10:31:26;100428.06;;;24.69;33.05
73003;BME280;61184;54.356;-8.550;2022-09-04T10:33:43;100436.96;;;24.66;32.88
73003;BME280;61184;54.356;-8.550;2022-09-04T10:36:10;100439.53;;;24.73;33.18
73003;BME280;61184;54.356;-8.550;2022-09-04T10:38:33;100438.27;;;24.51;33.56
73003;BME280;61184;54.356;-8.550;2022-09-04T10:43:34;100441.53;;;24.32;33.20
73003;BME280;61184;54.356;-8.550;2022-09-04T10:45:45;100439.77;;;24.55;33.14
73003;BME280;61184;54.356;-8.550;2022-09-04T10:48:24;100437.53;;;24.49;33.37
73003;BME280;61184;54.356;-8.550;2022-09-04T10:53:17;100444.23;;;24.47;33.41
73003;BME280;61184;54.356;-8.550;2022-09-04T10:55:31;100443.49;;;24.19;33.33
73003;BME280;61184;54.356;-8.550;2022-09-04T11:00:17;100449.30;;;24.64;33.08
73003;BME280;61184;54.356;-8.550;2022-09-04T11:02:51;100450.75;;;24.35;33.15
73003;BME280;61184;54.356;-8.550;2022-09-04T11:05:23;100451.03;;;24.56;33.07
73003;BME280;61184;54.356;-8.550;2022-09-04T11:07:45;100447.21;;;24.62;33.35
73003;BME280;61184;54.356;-8.550;2022-09-04T11:10:10;100457.36;;;24.64;33.09
73003;BME280;61184;54.356;-8.550;2022-09-04T11:12:32;100457.15;;;24.44;32.97
73003;BME280;61184;54.356;-8.550;2022-09-04T11:15:00;100458.49;;;24.82;32.76
73003;BME280;61184;54.356;-8.550;2022-09-04T11:29:33;100473.58;;;24.38;33.25
73003;BME280;61184;54.356;-8.550;2022-09-04T11:31:58;100479.94;;;24.62;33.06
73003;BME280;61184;54.356;-8.550;2022-09-04T11:46:33;100489.02;;;24.57;32.91
73003;BME280;61184;54.356;-8.550;2022-09-04T11:48:58;100495.29;;;24.48;32.97
73003;BME280;61184;54.356;-8.550;2022-09-04T11:53:46;100503.03;;;24.43;32.92
73003;BME280;61184;54.356;-8.550;2022-09-04T11:56:12;100509.05;;;24.53;32.78
73003;BME280;61184;54.356;-8.550;2022-09-04T11:58:39;100510.65;;;24.30;32.72
73003;BME280;61184;54.356;-8.550;2022-09-04T12:00:55;100517.99;;;24.66;32.64
73003;BME280;61184;54.356;-8.550;2022-09-04T12:03:27;100518.78;;;24.41;32.70
73003;BME280;61184;54.356;-8.550;2022-09-04T12:05:51;100522.04;;;24.64;32.59
73003;BME280;61184;54.356;-8.550;2022-09-04T12:10:43;100533.04;;;24.83;32.11
73003;BME280;61184;54.356;-8.550;2022-09-04T12:13:13;100535.06;;;24.94;31.90
73003;BME280;61184;54.356;-8.550;2022-09-04T12:15:37;100536.33;;;25.02;31.71
73003;BME280;61184;54.356;-8.550;2022-09-04T12:18:05;100536.54;;;24.15;32.50
73003;BME280;61184;54.356;-8.550;2022-09-04T12:20:31;100533.59;;;24.44;31.88
73003;BME280;61184;54.356;-8.550;2022-09-04T12:22:51;100535.27;;;24.67;31.47
73003;BME280;61184;54.356;-8.550;2022-09-04T12:25:15;100531.64;;;24.78;31.57
73003;BME280;61184;54.356;-8.550;2022-09-04T12:27:40;100537.83;;;24.64;31.81
73003;BME280;61184;54.356;-8.550;2022-09-04T12:30:04;100535.08;;;25.04;31.62
73003;BME280;61184;54.356;-8.550;2022-09-04T12:32:37;100541.83;;;24.88;31.47
73003;BME280;61184;54.356;-8.550;2022-09-04T12:37:25;100543.13;;;24.66;31.22
73003;BME280;61184;54.356;-8.550;2022-09-04T12:42:07;100540.88;;;25.03;31.10
73003;BME280;61184;54.356;-8.550;2022-09-04T12:44:36;100544.90;;;25.08;30.95
73003;BME280;61184;54.356;-8.550;2022-09-04T12:47:04;100549.19;;;25.02;31.04
73003;BME280;61184;54.356;-8.550;2022-09-04T12:49:34;100556.11;;;25.02;30.99
73003;BME280;61184;54.356;-8.550;2022-09-04T12:51:47;100550.20;;;24.86;30.86
73003;BME280;61184;54.356;-8.550;2022-09-04T12:54:19;100547.91;;;24.76;30.91
73003;BME280;61184;54.356;-8.550;2022-09-04T12:56:43;100555.97;;;25.03;30.89
73003;BME280;61184;54.356;-8.550;2022-09-04T12:59:11;100557.31;;;25.26;30.76
73003;BME280;61184;54.356;-8.550;2022-09-04T13:01:33;100559.45;;;24.73;30.88
73003;BME280;61184;54.356;-8.550;2022-09-04T13:03:56;100567.07;;;24.80;30.70
73003;BME280;61184;54.356;-8.550;2022-09-04T13:06:23;100572.09;;;24.86;30.65
73003;BME280;61184;54.356;-8.550;2022-09-04T13:08:51;100564.91;;;25.24;30.62
73003;BME280;61184;54.356;-8.550;2022-09-04T13:11:17;100568.83;;;24.74;30.61
73003;BME280;61184;54.356;-8.550;2022-09-04T13:13:39;100565.64;;;25.03;30.64
73003;BME280;61184;54.356;-8.550;2022-09-04T13:16:01;100565.67;;;25.41;30.38
73003;BME280;61184;54.356;-8.550;2022-09-04T13:18:33;100563.76;;;25.11;30.38
73003;BME280;61184;54.356;-8.550;2022-09-04T13:20:54;100565.76;;;24.91;30.37
73003;BME280;61184;54.356;-8.550;2022-09-04T13:23:26;100559.92;;;25.13;30.35
73003;BME280;61184;54.356;-8.550;2022-09-04T13:25:50;100557.70;;;25.13;30.35
73003;BME280;61184;54.356;-8.550;2022-09-04T13:28:11;100557.54;;;25.20;30.26
73003;BME280;61184;54.356;-8.550;2022-09-04T13:30:31;100550.90;;;25.30;30.28
73003;BME280;61184;54.356;-8.550;2022-09-04T13:35:33;100545.95;;;25.27;30.40
73003;BME280;61184;54.356;-8.550;2022-09-04T13:37:58;100543.92;;;24.96;30.44
73003;BME280;61184;54.356;-8.550;2022-09-04T13:40:25;100541.86;;;25.21;30.52
73003;BME280;61184;54.356;-8.550;2022-09-04T13:45:05;100545.84;;;25.24;30.57
73003;BME280;61184;54.356;-8.550;2022-09-04T13:47:33;100541.66;;;25.33;30.58
73003;BME280;61184;54.356;-8.550;2022-09-04T13:49:57;100536.30;;;25.49;30.72
73003;BME280;61184;54.356;-8.550;2022-09-04T13:52:21;100538.10;;;25.32;30.73
73003;BME280;61184;54.356;-8.550;2022-09-04T13:54:47;100537.12;;;25.04;30.73
73003;BME280;61184;54.356;-8.550;2022-09-04T13:57:14;100534.04;;;24.95;30.87
73003;BME280;61184;54.356;-8.550;2022-09-04T13:59:34;100540.57;;;25.57;30.56
73003;BME280;61184;54.356;-8.550;2022-09-04T14:02:03;100532.19;;;25.13;30.76
73003;BME280;61184;54.356;-8.550;2022-09-04T14:04:30;100536.97;;;25.12;30.70
73003;BME280;61184;54.356;-8.550;2022-09-04T14:06:53;100535.26;;;25.21;30.57
73003;BME280;61184;54.356;-8.550;2022-09-04T14:09:16;100527.00;;;25.18;30.64
73003;BME280;61184;54.356;-8.550;2022-09-04T14:11:54;100521.38;;;25.51;30.43
73003;BME280;61184;54.356;-8.550;2022-09-04T14:14:20;100532.71;;;25.23;30.48
73003;BME280;61184;54.356;-8.550;2022-09-04T14:16:32;100527.83;;;25.41;30.29
73003;BME280;61184;54.356;-8.550;2022-09-04T14:19:12;100531.42;;;25.46;30.31
73003;BME280;61184;54.356;-8.550;2022-09-04T14:21:34;100536.74;;;25.47;30.39
73003;BME280;61184;54.356;-8.550;2022-09-04T14:23:54;100539.37;;;25.55;30.58
73003;BME280;61184;54.356;-8.550;2022-09-04T14:26:21;100533.65;;;25.51;30.44